sensor_id;sensor_type;location;lat;lon;timestamp;temperature;humidity
1812;DHT22;904;47.814;11.134;2023-02-01T00:00:09;6.30;48.40
1812;DHT22;904;47.814;11.134;2023-02-01T00:02:36;6.30;47.70
1812;DHT22;904;47.814;11.134;2023-02-01T00:05:08;6.40;47.90
1812;DHT22;904;47.814;11.134;2023-02-01T00:07:36;6.30;47.90
1812;DHT22;904;47.814;11.134;2023-02-01T00:10:04;6.40;48.00
1812;DHT22;904;47.814;11.134;2023-02-01T00:12:32;6.40;48.10
1812;DHT22;904;47.814;11.134;2023-02-01T00:15:00;6.40;48.00
1812;DHT22;904;47.814;11.134;2023-02-01T00:17:27;6.40;48.30
1812;DHT22;904;47.814;11.134;2023-02-01T00:19:55;6.40;48.20
1812;DHT22;904;47.814;11.134;2023-02-01T00:22:24;6.50;48.10
1812;DHT22;904;47.814;11.134;2023-02-01T00:24:51;6.50;47.70
1812;DHT22;904;47.814;11.134;2023-02-01T00:27:18;6.40;48.10
1812;DHT22;904;47.814;11.134;2023-02-01T00:29:47;6.40;47.80
1812;DHT22;904;47.814;11.134;2023-02-01T00:32:14;6.40;47.90
1812;DHT22;904;47.814;11.134;2023-02-01T00:34:41;6.40;48.20
1812;DHT22;904;47.814;11.134;2023-02-01T00:37:08;6.40;47.70
1812;DHT22;904;47.814;11.134;2023-02-01T00:39:36;6.40;47.60
1812;DHT22;904;47.814;11.134;2023-02-01T00:42:04;6.40;47.90
1812;DHT22;904;47.814;11.134;2023-02-01T00:44:31;6.40;47.90
1812;DHT22;904;47.814;11.134;2023-02-01T00:47:01;6.50;47.40
1812;DHT22;904;47.814;11.134;2023-02-01T00:49:30;6.50;47.20
1812;DHT22;904;47.814;11.134;2023-02-01T00:51:58;6.40;47.20
1812;DHT22;904;47.814;11.134;2023-02-01T00:54:27;6.40;47.60
1812;DHT22;904;47.814;11.134;2023-02-01T00:56:55;6.40;47.20
1812;DHT22;904;47.814;11.134;2023-02-01T00:59:22;6.40;47.20
1812;DHT22;904;47.814;11.134;2023-02-01T01:01:49;6.50;46.90
1812;DHT22;904;47.814;11.134;2023-02-01T01:04:16;6.50;46.80
1812;DHT22;904;47.814;11.134;2023-02-01T01:06:43;6.50;47.10
1812;DHT22;904;47.814;11.134;2023-02-01T01:09:10;6.50;47.10
1812;DHT22;904;47.814;11.134;2023-02-01T01:11:38;6.50;47.00
1812;DHT22;904;47.814;11.134;2023-02-01T01:14:08;6.40;47.00
1812;DHT22;904;47.814;11.134;2023-02-01T01:16:35;6.40;47.20
1812;DHT22;904;47.814;11.134;2023-02-01T01:19:03;6.50;47.30
1812;DHT22;904;47.814;11.134;2023-02-01T01:21:31;6.40;47.30
1812;DHT22;904;47.814;11.134;2023-02-01T01:23:58;6.40;47.70
1812;DHT22;904;47.814;11.134;2023-02-01T01:26:27;6.40;48.10
1812;DHT22;904;47.814;11.134;2023-02-01T01:28:55;6.40;48.30
1812;DHT22;904;47.814;11.134;2023-02-01T01:31:24;6.40;48.40
1812;DHT22;904;47.814;11.134;2023-02-01T01:33:53;6.40;48.40
1812;DHT22;904;47.814;11.134;2023-02-01T01:36:21;6.40;48.30
1812;DHT22;904;47.814;11.134;2023-02-01T01:38:50;6.40;48.50
1812;DHT22;904;47.814;11.134;2023-02-01T01:41:19;6.40;48.60
1812;DHT22;904;47.814;11.134;2023-02-01T01:43:49;6.40;48.80
1812;DHT22;904;47.814;11.134;2023-02-01T01:46:18;6.40;49.10
1812;DHT22;904;47.814;11.134;2023-02-01T01:48:48;6.40;49.30
1812;DHT22;904;47.814;11.134;2023-02-01T01:51:19;6.40;49.60
1812;DHT22;904;47.814;11.134;2023-02-01T01:53:52;6.40;49.70
1812;DHT22;904;47.814;11.134;2023-02-01T01:56:22;6.40;50.00
1812;DHT22;904;47.814;11.134;2023-02-01T01:58:49;6.40;50.40
1812;DHT22;904;47.814;11.134;2023-02-01T02:01:16;6.30;50.80
1812;DHT22;904;47.814;11.134;2023-02-01T02:03:46;6.30;50.90
1812;DHT22;904;47.814;11.134;2023-02-01T02:06:19;6.30;51.00
1812;DHT22;904;47.814;11.134;2023-02-01T02:08:48;6.30;51.30
1812;DHT22;904;47.814;11.134;2023-02-01T02:11:17;6.30;51.60
1812;DHT22;904;47.814;11.134;2023-02-01T02:13:48;6.30;51.60
1812;DHT22;904;47.814;11.134;2023-02-01T02:16:30;6.20;51.70
1812;DHT22;904;47.814;11.134;2023-02-01T02:19:24;6.20;52.00
1812;DHT22;904;47.814;11.134;2023-02-01T02:22:12;6.20;51.80
1812;DHT22;904;47.814;11.134;2023-02-01T02:24:57;6.30;51.80
1812;DHT22;904;47.814;11.134;2023-02-01T02:27:41;6.20;51.80
1812;DHT22;904;47.814;11.134;2023-02-01T02:30:39;6.20;52.00
1812;DHT22;904;47.814;11.134;2023-02-01T02:33:39;6.20;52.00
1812;DHT22;904;47.814;11.134;2023-02-01T02:36:12;6.10;51.90
1812;DHT22;904;47.814;11.134;2023-02-01T02:38:49;6.10;52.10
1812;DHT22;904;47.814;11.134;2023-02-01T02:41:19;6.00;52.10
1812;DHT22;904;47.814;11.134;2023-02-01T02:44:11;6.10;52.00
1812;DHT22;904;47.814;11.134;2023-02-01T02:47:02;6.10;51.30
1812;DHT22;904;47.814;11.134;2023-02-01T02:49:51;6.10;50.80
1812;DHT22;904;47.814;11.134;2023-02-01T02:52:36;6.00;50.90
1812;DHT22;904;47.814;11.134;2023-02-01T02:55:25;6.00;50.90
1812;DHT22;904;47.814;11.134;2023-02-01T02:57:53;6.00;51.20
1812;DHT22;904;47.814;11.134;2023-02-01T03:00:40;6.00;50.70
1812;DHT22;904;47.814;11.134;2023-02-01T03:03:24;6.00;50.60
1812;DHT22;904;47.814;11.134;2023-02-01T03:06:13;6.00;50.70
1812;DHT22;904;47.814;11.134;2023-02-01T03:08:41;6.00;50.50
1812;DHT22;904;47.814;11.134;2023-02-01T03:11:13;6.00;50.30
1812;DHT22;904;47.814;11.134;2023-02-01T03:13:44;6.00;50.30
1812;DHT22;904;47.814;11.134;2023-02-01T03:16:14;6.00;50.50
1812;DHT22;904;47.814;11.134;2023-02-01T03:18:48;6.10;50.20
1812;DHT22;904;47.814;11.134;2023-02-01T03:21:22;6.10;50.20
1812;DHT22;904;47.814;11.134;2023-02-01T03:23:51;6.10;50.00
1812;DHT22;904;47.814;11.134;2023-02-01T03:26:20;6.10;49.90
1812;DHT22;904;47.814;11.134;2023-02-01T03:28:53;6.00;50.10
1812;DHT22;904;47.814;11.134;2023-02-01T03:31:21;6.00;50.20
1812;DHT22;904;47.814;11.134;2023-02-01T03:33:49;6.10;50.20
1812;DHT22;904;47.814;11.134;2023-02-01T03:36:25;6.00;50.10
1812;DHT22;904;47.814;11.134;2023-02-01T03:38:58;6.00;50.20
1812;DHT22;904;47.814;11.134;2023-02-01T03:41:34;6.00;50.40
1812;DHT22;904;47.814;11.134;2023-02-01T03:44:08;6.00;50.40
1812;DHT22;904;47.814;11.134;2023-02-01T03:46:40;6.00;50.80
1812;DHT22;904;47.814;11.134;2023-02-01T03:49:10;6.00;51.10
1812;DHT22;904;47.814;11.134;2023-02-01T03:51:40;6.10;51.50
1812;DHT22;904;47.814;11.134;2023-02-01T03:54:10;6.10;51.90
1812;DHT22;904;47.814;11.134;2023-02-01T03:56:43;6.10;52.20
1812;DHT22;904;47.814;11.134;2023-02-01T03:59:11;6.10;52.80
1812;DHT22;904;47.814;11.134;2023-02-01T04:01:38;6.10;53.20
1812;DHT22;904;47.814;11.134;2023-02-01T04:04:05;6.10;53.30
1812;DHT22;904;47.814;11.134;2023-02-01T04:06:32;6.10;53.60
1812;DHT22;904;47.814;11.134;2023-02-01T04:09:00;6.10;53.40
1812;DHT22;904;47.814;11.134;2023-02-01T04:11:28;6.20;53.10
1812;DHT22;904;47.814;11.134;2023-02-01T04:13:55;6.20;53.20
1812;DHT22;904;47.814;11.134;2023-02-01T04:16:22;6.20;54.00
1812;DHT22;904;47.814;11.134;2023-02-01T04:18:50;6.20;54.40
1812;DHT22;904;47.814;11.134;2023-02-01T04:21:17;6.10;54.80
1812;DHT22;904;47.814;11.134;2023-02-01T04:23:43;6.10;55.40
1812;DHT22;904;47.814;11.134;2023-02-01T04:26:12;6.10;55.50
1812;DHT22;904;47.814;11.134;2023-02-01T04:28:42;6.00;55.60
1812;DHT22;904;47.814;11.134;2023-02-01T04:31:09;6.00;55.70
1812;DHT22;904;47.814;11.134;2023-02-01T04:33:36;6.00;55.80
1812;DHT22;904;47.814;11.134;2023-02-01T04:36:04;6.00;55.70
1812;DHT22;904;47.814;11.134;2023-02-01T04:38:31;6.10;55.30
1812;DHT22;904;47.814;11.134;2023-02-01T04:40:58;6.10;55.50
1812;DHT22;904;47.814;11.134;2023-02-01T04:43:27;6.20;55.70
1812;DHT22;904;47.814;11.134;2023-02-01T04:45:54;6.10;56.70
1812;DHT22;904;47.814;11.134;2023-02-01T04:48:21;6.10;56.80
1812;DHT22;904;47.814;11.134;2023-02-01T04:50:48;6.10;57.20
1812;DHT22;904;47.814;11.134;2023-02-01T04:53:15;6.10;57.10
1812;DHT22;904;47.814;11.134;2023-02-01T04:55:48;6.00;56.80
1812;DHT22;904;47.814;11.134;2023-02-01T04:58:15;6.10;56.90
1812;DHT22;904;47.814;11.134;2023-02-01T05:00:48;6.10;56.60
1812;DHT22;904;47.814;11.134;2023-02-01T05:03:15;6.10;56.40
1812;DHT22;904;47.814;11.134;2023-02-01T05:05:43;6.10;56.20
1812;DHT22;904;47.814;11.134;2023-02-01T05:08:10;6.00;56.20
1812;DHT22;904;47.814;11.134;2023-02-01T05:10:37;6.00;56.20
1812;DHT22;904;47.814;11.134;2023-02-01T05:13:03;6.00;56.20
1812;DHT22;904;47.814;11.134;2023-02-01T05:15:50;5.90;56.30
1812;DHT22;904;47.814;11.134;2023-02-01T05:18:17;5.90;56.50
1812;DHT22;904;47.814;11.134;2023-02-01T05:20:49;6.00;56.60
1812;DHT22;904;47.814;11.134;2023-02-01T05:23:16;6.00;56.80
1812;DHT22;904;47.814;11.134;2023-02-01T05:25:43;6.00;57.00
1812;DHT22;904;47.814;11.134;2023-02-01T05:28:10;5.90;57.00
1812;DHT22;904;47.814;11.134;2023-02-01T05:30:39;5.90;57.40
1812;DHT22;904;47.814;11.134;2023-02-01T05:33:07;5.90;57.40
1812;DHT22;904;47.814;11.134;2023-02-01T05:35:34;5.90;57.30
1812;DHT22;904;47.814;11.134;2023-02-01T05:38:05;5.80;57.40
1812;DHT22;904;47.814;11.134;2023-02-01T05:40:33;5.80;57.60
1812;DHT22;904;47.814;11.134;2023-02-01T05:42:59;5.80;57.40
1812;DHT22;904;47.814;11.134;2023-02-01T05:45:27;5.80;57.20
1812;DHT22;904;47.814;11.134;2023-02-01T05:47:53;5.80;57.20
1812;DHT22;904;47.814;11.134;2023-02-01T05:50:22;5.80;57.40
1812;DHT22;904;47.814;11.134;2023-02-01T05:52:49;5.80;57.30
1812;DHT22;904;47.814;11.134;2023-02-01T05:55:16;5.80;57.20
1812;DHT22;904;47.814;11.134;2023-02-01T05:57:43;5.80;57.60
1812;DHT22;904;47.814;11.134;2023-02-01T06:00:11;5.90;57.40
1812;DHT22;904;47.814;11.134;2023-02-01T06:02:38;5.90;57.30
1812;DHT22;904;47.814;11.134;2023-02-01T06:05:07;5.90;57.30
1812;DHT22;904;47.814;11.134;2023-02-01T06:07:35;5.90;57.10
1812;DHT22;904;47.814;11.134;2023-02-01T06:10:03;5.90;57.10
1812;DHT22;904;47.814;11.134;2023-02-01T06:12:30;5.90;57.10
1812;DHT22;904;47.814;11.134;2023-02-01T06:14:57;5.90;56.70
1812;DHT22;904;47.814;11.134;2023-02-01T06:17:29;5.90;56.60
1812;DHT22;904;47.814;11.134;2023-02-01T06:19:58;5.90;56.80
1812;DHT22;904;47.814;11.134;2023-02-01T06:22:34;5.80;57.00
1812;DHT22;904;47.814;11.134;2023-02-01T06:25:09;5.80;56.90
1812;DHT22;904;47.814;11.134;2023-02-01T06:27:39;5.80;56.90
1812;DHT22;904;47.814;11.134;2023-02-01T06:30:13;5.70;56.70
1812;DHT22;904;47.814;11.134;2023-02-01T06:32:40;5.80;56.70
1812;DHT22;904;47.814;11.134;2023-02-01T06:35:11;5.80;56.70
1812;DHT22;904;47.814;11.134;2023-02-01T06:37:43;5.80;56.60
1812;DHT22;904;47.814;11.134;2023-02-01T06:40:14;5.80;56.90
1812;DHT22;904;47.814;11.134;2023-02-01T06:42:42;5.80;57.00
1812;DHT22;904;47.814;11.134;2023-02-01T06:45:09;5.80;57.00
1812;DHT22;904;47.814;11.134;2023-02-01T06:47:37;5.70;57.00
1812;DHT22;904;47.814;11.134;2023-02-01T06:50:10;5.70;57.00
1812;DHT22;904;47.814;11.134;2023-02-01T06:52:43;5.80;57.00
1812;DHT22;904;47.814;11.134;2023-02-01T06:55:10;5.80;57.10
1812;DHT22;904;47.814;11.134;2023-02-01T06:57:37;5.90;57.00
1812;DHT22;904;47.814;11.134;2023-02-01T07:00:05;5.90;57.20
1812;DHT22;904;47.814;11.134;2023-02-01T07:02:32;5.90;57.00
1812;DHT22;904;47.814;11.134;2023-02-01T07:04:59;6.00;57.00
1812;DHT22;904;47.814;11.134;2023-02-01T07:07:26;6.00;57.00
1812;DHT22;904;47.814;11.134;2023-02-01T07:09:54;5.90;57.20
1812;DHT22;904;47.814;11.134;2023-02-01T07:12:21;5.90;57.30
1812;DHT22;904;47.814;11.134;2023-02-01T07:14:48;5.90;57.30
1812;DHT22;904;47.814;11.134;2023-02-01T07:17:15;5.90;57.40
1812;DHT22;904;47.814;11.134;2023-02-01T07:19:42;5.90;57.60
1812;DHT22;904;47.814;11.134;2023-02-01T07:22:09;6.00;57.70
1812;DHT22;904;47.814;11.134;2023-02-01T07:24:36;6.10;57.20
1812;DHT22;904;47.814;11.134;2023-02-01T07:27:05;6.00;57.50
1812;DHT22;904;47.814;11.134;2023-02-01T07:29:32;6.00;57.70
1812;DHT22;904;47.814;11.134;2023-02-01T07:31:59;6.10;57.60
1812;DHT22;904;47.814;11.134;2023-02-01T07:34:27;6.10;57.40
1812;DHT22;904;47.814;11.134;2023-02-01T07:36:56;6.20;57.20
1812;DHT22;904;47.814;11.134;2023-02-01T07:39:23;6.20;57.30
1812;DHT22;904;47.814;11.134;2023-02-01T07:41:50;6.10;57.40
1812;DHT22;904;47.814;11.134;2023-02-01T07:44:18;6.10;57.70
1812;DHT22;904;47.814;11.134;2023-02-01T07:46:49;6.10;58.00
1812;DHT22;904;47.814;11.134;2023-02-01T07:49:17;6.20;58.00
1812;DHT22;904;47.814;11.134;2023-02-01T07:51:48;6.20;58.00
1812;DHT22;904;47.814;11.134;2023-02-01T07:54:15;6.10;58.30
1812;DHT22;904;47.814;11.134;2023-02-01T07:56:42;6.10;58.30
1812;DHT22;904;47.814;11.134;2023-02-01T07:59:09;6.10;58.40
1812;DHT22;904;47.814;11.134;2023-02-01T08:01:39;6.20;58.40
1812;DHT22;904;47.814;11.134;2023-02-01T08:04:10;6.20;58.40
1812;DHT22;904;47.814;11.134;2023-02-01T08:06:38;6.20;58.30
1812;DHT22;904;47.814;11.134;2023-02-01T08:09:08;6.10;58.50
1812;DHT22;904;47.814;11.134;2023-02-01T08:11:36;6.20;58.80
1812;DHT22;904;47.814;11.134;2023-02-01T08:14:04;6.20;58.40
1812;DHT22;904;47.814;11.134;2023-02-01T08:16:32;6.20;58.90
1812;DHT22;904;47.814;11.134;2023-02-01T08:19:02;6.20;58.90
1812;DHT22;904;47.814;11.134;2023-02-01T08:21:29;6.20;59.60
1812;DHT22;904;47.814;11.134;2023-02-01T08:24:03;6.30;59.10
1812;DHT22;904;47.814;11.134;2023-02-01T08:26:30;6.30;58.80
1812;DHT22;904;47.814;11.134;2023-02-01T08:28:59;6.40;58.80
1812;DHT22;904;47.814;11.134;2023-02-01T08:31:28;6.40;58.60
1812;DHT22;904;47.814;11.134;2023-02-01T08:33:56;6.50;58.40
1812;DHT22;904;47.814;11.134;2023-02-01T08:36:26;6.60;58.40
1812;DHT22;904;47.814;11.134;2023-02-01T08:38:54;6.50;58.50
1812;DHT22;904;47.814;11.134;2023-02-01T08:41:27;6.60;58.40
1812;DHT22;904;47.814;11.134;2023-02-01T08:43:54;6.70;57.90
1812;DHT22;904;47.814;11.134;2023-02-01T08:46:22;6.60;58.10
1812;DHT22;904;47.814;11.134;2023-02-01T08:48:50;6.60;58.20
1812;DHT22;904;47.814;11.134;2023-02-01T08:51:19;6.60;58.20
1812;DHT22;904;47.814;11.134;2023-02-01T08:53:48;6.70;58.20
1812;DHT22;904;47.814;11.134;2023-02-01T08:56:16;6.80;57.80
1812;DHT22;904;47.814;11.134;2023-02-01T08:58:43;6.80;57.70
1812;DHT22;904;47.814;11.134;2023-02-01T09:01:12;6.80;57.70
1812;DHT22;904;47.814;11.134;2023-02-01T09:03:40;6.80;57.80
1812;DHT22;904;47.814;11.134;2023-02-01T09:06:08;6.80;58.30
1812;DHT22;904;47.814;11.134;2023-02-01T09:08:37;6.80;57.90
1812;DHT22;904;47.814;11.134;2023-02-01T09:11:07;6.90;57.80
1812;DHT22;904;47.814;11.134;2023-02-01T09:13:35;7.00;57.40
1812;DHT22;904;47.814;11.134;2023-02-01T09:16:02;7.10;57.30
1812;DHT22;904;47.814;11.134;2023-02-01T09:18:29;7.10;57.40
1812;DHT22;904;47.814;11.134;2023-02-01T09:20:56;7.30;57.30
1812;DHT22;904;47.814;11.134;2023-02-01T09:23:23;7.40;56.90
1812;DHT22;904;47.814;11.134;2023-02-01T09:25:50;7.40;56.80
1812;DHT22;904;47.814;11.134;2023-02-01T09:28:19;7.50;56.70
1812;DHT22;904;47.814;11.134;2023-02-01T09:30:46;7.50;56.80
1812;DHT22;904;47.814;11.134;2023-02-01T09:33:13;7.70;56.70
1812;DHT22;904;47.814;11.134;2023-02-01T09:35:40;7.80;56.60
1812;DHT22;904;47.814;11.134;2023-02-01T09:38:07;7.90;56.40
1812;DHT22;904;47.814;11.134;2023-02-01T09:40:34;7.90;56.30
1812;DHT22;904;47.814;11.134;2023-02-01T09:43:23;7.90;56.20
1812;DHT22;904;47.814;11.134;2023-02-01T09:45:58;7.90;56.20
1812;DHT22;904;47.814;11.134;2023-02-01T09:48:30;7.80;56.50
1812;DHT22;904;47.814;11.134;2023-02-01T09:50:59;7.80;56.90
1812;DHT22;904;47.814;11.134;2023-02-01T09:53:32;7.70;57.20
1812;DHT22;904;47.814;11.134;2023-02-01T09:56:04;7.80;57.40
1812;DHT22;904;47.814;11.134;2023-02-01T09:58:36;7.80;57.30
1812;DHT22;904;47.814;11.134;2023-02-01T10:01:13;7.90;57.30
1812;DHT22;904;47.814;11.134;2023-02-01T10:03:41;7.90;56.80
1812;DHT22;904;47.814;11.134;2023-02-01T10:06:30;7.90;57.10
1812;DHT22;904;47.814;11.134;2023-02-01T10:09:14;8.00;57.50
1812;DHT22;904;47.814;11.134;2023-02-01T10:11:56;8.00;57.00
1812;DHT22;904;47.814;11.134;2023-02-01T10:14:46;8.10;56.70
1812;DHT22;904;47.814;11.134;2023-02-01T10:17:28;8.30;56.40
1812;DHT22;904;47.814;11.134;2023-02-01T10:20:04;8.30;56.40
1812;DHT22;904;47.814;11.134;2023-02-01T10:22:41;8.40;55.70
1812;DHT22;904;47.814;11.134;2023-02-01T10:25:14;8.40;55.60
1812;DHT22;904;47.814;11.134;2023-02-01T10:27:43;8.40;55.70
1812;DHT22;904;47.814;11.134;2023-02-01T10:30:19;8.30;55.30
1812;DHT22;904;47.814;11.134;2023-02-01T10:32:48;8.30;55.30
1812;DHT22;904;47.814;11.134;2023-02-01T10:35:18;8.10;55.50
1812;DHT22;904;47.814;11.134;2023-02-01T10:37:48;8.20;55.80
1812;DHT22;904;47.814;11.134;2023-02-01T10:40:21;8.20;55.50
1812;DHT22;904;47.814;11.134;2023-02-01T10:42:50;8.20;55.80
1812;DHT22;904;47.814;11.134;2023-02-01T10:45:22;8.30;55.10
1812;DHT22;904;47.814;11.134;2023-02-01T10:47:52;8.30;55.10
1812;DHT22;904;47.814;11.134;2023-02-01T10:50:32;8.40;54.70
1812;DHT22;904;47.814;11.134;2023-02-01T10:53:04;8.50;54.70
1812;DHT22;904;47.814;11.134;2023-02-01T10:55:36;8.70;54.20
1812;DHT22;904;47.814;11.134;2023-02-01T10:58:05;9.00;53.30
1812;DHT22;904;47.814;11.134;2023-02-01T11:00:43;9.10;52.30
1812;DHT22;904;47.814;11.134;2023-02-01T11:03:27;9.10;52.20
1812;DHT22;904;47.814;11.134;2023-02-01T11:05:57;9.30;52.20
1812;DHT22;904;47.814;11.134;2023-02-01T11:08:24;9.40;52.20
1812;DHT22;904;47.814;11.134;2023-02-01T11:10:58;9.70;51.30
1812;DHT22;904;47.814;11.134;2023-02-01T11:13:29;9.70;50.70
1812;DHT22;904;47.814;11.134;2023-02-01T11:16:02;9.60;51.00
1812;DHT22;904;47.814;11.134;2023-02-01T11:18:31;9.70;50.70
1812;DHT22;904;47.814;11.134;2023-02-01T11:20:59;9.70;50.70
1812;DHT22;904;47.814;11.134;2023-02-01T11:23:28;9.80;50.30
1812;DHT22;904;47.814;11.134;2023-02-01T11:25:58;10.00;48.90
1812;DHT22;904;47.814;11.134;2023-02-01T11:28:27;10.10;48.50
1812;DHT22;904;47.814;11.134;2023-02-01T11:30:59;10.20;48.40
1812;DHT22;904;47.814;11.134;2023-02-01T11:33:29;10.30;48.00
1812;DHT22;904;47.814;11.134;2023-02-01T11:36:00;10.40;48.30
1812;DHT22;904;47.814;11.134;2023-02-01T11:38:29;10.40;47.50
1812;DHT22;904;47.814;11.134;2023-02-01T11:41:12;10.30;47.90
1812;DHT22;904;47.814;11.134;2023-02-01T11:43:51;10.30;47.20
1812;DHT22;904;47.814;11.134;2023-02-01T11:46:23;10.20;47.00
1812;DHT22;904;47.814;11.134;2023-02-01T11:48:53;10.10;47.40
1812;DHT22;904;47.814;11.134;2023-02-01T11:51:33;9.90;48.10
1812;DHT22;904;47.814;11.134;2023-02-01T11:54:11;9.60;48.40
1812;DHT22;904;47.814;11.134;2023-02-01T11:56:51;9.40;49.50
1812;DHT22;904;47.814;11.134;2023-02-01T11:59:32;9.20;49.90
1812;DHT22;904;47.814;11.134;2023-02-01T12:05:10;9.10;50.60
1812;DHT22;904;47.814;11.134;2023-02-01T12:07:59;9.10;49.90
1812;DHT22;904;47.814;11.134;2023-02-01T12:10:37;9.20;50.60
1812;DHT22;904;47.814;11.134;2023-02-01T12:13:15;9.30;50.10
1812;DHT22;904;47.814;11.134;2023-02-01T12:15:54;9.30;50.50
1812;DHT22;904;47.814;11.134;2023-02-01T12:21:50;9.40;49.90
1812;DHT22;904;47.814;11.134;2023-02-01T12:24:42;9.50;49.70
1812;DHT22;904;47.814;11.134;2023-02-01T12:27:32;9.50;50.10
1812;DHT22;904;47.814;11.134;2023-02-01T12:30:15;9.60;49.70
1812;DHT22;904;47.814;11.134;2023-02-01T12:32:53;9.60;50.10
1812;DHT22;904;47.814;11.134;2023-02-01T12:35:49;9.60;50.20
1812;DHT22;904;47.814;11.134;2023-02-01T12:38:51;9.60;50.40
1812;DHT22;904;47.814;11.134;2023-02-01T12:41:41;9.70;50.00
1812;DHT22;904;47.814;11.134;2023-02-01T12:44:14;9.80;50.50
1812;DHT22;904;47.814;11.134;2023-02-01T12:46:46;9.70;50.40
1812;DHT22;904;47.814;11.134;2023-02-01T12:49:18;9.70;50.40
1812;DHT22;904;47.814;11.134;2023-02-01T12:51:49;9.50;50.80
1812;DHT22;904;47.814;11.134;2023-02-01T12:54:20;9.50;50.90
1812;DHT22;904;47.814;11.134;2023-02-01T12:56:51;9.40;50.70
1812;DHT22;904;47.814;11.134;2023-02-01T12:59:24;9.40;50.80
1812;DHT22;904;47.814;11.134;2023-02-01T13:01:55;9.30;50.70
1812;DHT22;904;47.814;11.134;2023-02-01T13:04:29;9.30;50.80
1812;DHT22;904;47.814;11.134;2023-02-01T13:07:06;9.30;50.60
1812;DHT22;904;47.814;11.134;2023-02-01T13:09:41;9.20;50.90
1812;DHT22;904;47.814;11.134;2023-02-01T13:12:13;9.10;51.20
1812;DHT22;904;47.814;11.134;2023-02-01T13:14:48;9.00;51.60
1812;DHT22;904;47.814;11.134;2023-02-01T13:17:19;8.90;51.50
1812;DHT22;904;47.814;11.134;2023-02-01T13:19:52;8.80;51.70
1812;DHT22;904;47.814;11.134;2023-02-01T13:22:25;8.70;51.90
1812;DHT22;904;47.814;11.134;2023-02-01T13:24:56;8.60;52.20
1812;DHT22;904;47.814;11.134;2023-02-01T13:27:26;8.50;52.00
1812;DHT22;904;47.814;11.134;2023-02-01T13:29:58;8.50;52.50
1812;DHT22;904;47.814;11.134;2023-02-01T13:35:56;8.30;52.80
1812;DHT22;904;47.814;11.134;2023-02-01T13:38:45;8.30;51.70
1812;DHT22;904;47.814;11.134;2023-02-01T13:41:25;8.30;52.00
1812;DHT22;904;47.814;11.134;2023-02-01T13:43:55;8.30;51.60
1812;DHT22;904;47.814;11.134;2023-02-01T13:46:29;8.20;51.30
1812;DHT22;904;47.814;11.134;2023-02-01T13:48:59;8.30;51.30
1812;DHT22;904;47.814;11.134;2023-02-01T13:51:37;8.40;51.20
1812;DHT22;904;47.814;11.134;2023-02-01T13:54:06;8.60;50.50
1812;DHT22;904;47.814;11.134;2023-02-01T13:56:43;8.70;50.70
1812;DHT22;904;47.814;11.134;2023-02-01T14:02:59;9.00;49.70
1812;DHT22;904;47.814;11.134;2023-02-01T14:11:37;9.40;48.40
1812;DHT22;904;47.814;11.134;2023-02-01T14:17:39;9.50;48.20
1812;DHT22;904;47.814;11.134;2023-02-01T14:23:19;9.80;48.40
1812;DHT22;904;47.814;11.134;2023-02-01T14:26:05;10.00;47.20
1812;DHT22;904;47.814;11.134;2023-02-01T14:28:36;10.10;46.50
1812;DHT22;904;47.814;11.134;2023-02-01T14:31:16;10.10;46.20
1812;DHT22;904;47.814;11.134;2023-02-01T14:33:45;9.90;47.30
1812;DHT22;904;47.814;11.134;2023-02-01T14:36:14;9.90;47.10
1812;DHT22;904;47.814;11.134;2023-02-01T14:38:48;9.80;47.20
1812;DHT22;904;47.814;11.134;2023-02-01T14:41:28;9.70;47.30
1812;DHT22;904;47.814;11.134;2023-02-01T14:44:26;9.60;47.30
1812;DHT22;904;47.814;11.134;2023-02-01T14:47:08;9.50;48.00
1812;DHT22;904;47.814;11.134;2023-02-01T14:49:38;9.30;47.50
1812;DHT22;904;47.814;11.134;2023-02-01T14:52:11;9.10;47.70
1812;DHT22;904;47.814;11.134;2023-02-01T14:54:41;9.00;48.40
1812;DHT22;904;47.814;11.134;2023-02-01T14:57:15;8.80;49.60
1812;DHT22;904;47.814;11.134;2023-02-01T14:59:46;8.70;49.50
1812;DHT22;904;47.814;11.134;2023-02-01T15:02:20;8.70;49.70
1812;DHT22;904;47.814;11.134;2023-02-01T15:04:54;8.60;49.60
1812;DHT22;904;47.814;11.134;2023-02-01T15:07:22;8.50;50.10
1812;DHT22;904;47.814;11.134;2023-02-01T15:09:51;8.40;49.70
1812;DHT22;904;47.814;11.134;2023-02-01T15:12:23;8.30;49.90
1812;DHT22;904;47.814;11.134;2023-02-01T15:15:11;8.20;50.40
1812;DHT22;904;47.814;11.134;2023-02-01T15:17:39;8.10;50.60
1812;DHT22;904;47.814;11.134;2023-02-01T15:20:14;8.00;51.50
1812;DHT22;904;47.814;11.134;2023-02-01T15:22:42;7.90;51.50
1812;DHT22;904;47.814;11.134;2023-02-01T15:25:20;7.90;51.80
1812;DHT22;904;47.814;11.134;2023-02-01T15:27:48;7.80;52.20
1812;DHT22;904;47.814;11.134;2023-02-01T15:30:22;7.80;52.70
1812;DHT22;904;47.814;11.134;2023-02-01T15:32:51;7.70;53.10
1812;DHT22;904;47.814;11.134;2023-02-01T15:35:41;7.60;52.90
1812;DHT22;904;47.814;11.134;2023-02-01T15:38:20;7.50;53.40
1812;DHT22;904;47.814;11.134;2023-02-01T15:40:55;7.40;53.90
1812;DHT22;904;47.814;11.134;2023-02-01T15:43:26;7.30;54.10
1812;DHT22;904;47.814;11.134;2023-02-01T15:45:58;7.30;53.80
1812;DHT22;904;47.814;11.134;2023-02-01T15:48:27;7.20;53.70
1812;DHT22;904;47.814;11.134;2023-02-01T15:50:57;7.10;53.50
1812;DHT22;904;47.814;11.134;2023-02-01T15:53:28;7.10;54.00
1812;DHT22;904;47.814;11.134;2023-02-01T15:55:59;7.10;54.00
1812;DHT22;904;47.814;11.134;2023-02-01T15:58:27;7.10;53.90
1812;DHT22;904;47.814;11.134;2023-02-01T16:01:00;7.00;54.00
1812;DHT22;904;47.814;11.134;2023-02-01T16:03:36;7.00;54.20
1812;DHT22;904;47.814;11.134;2023-02-01T16:06:06;7.00;54.00
1812;DHT22;904;47.814;11.134;2023-02-01T16:08:33;6.90;54.10
1812;DHT22;904;47.814;11.134;2023-02-01T16:11:25;6.90;54.30
1812;DHT22;904;47.814;11.134;2023-02-01T16:13:53;6.80;54.40
1812;DHT22;904;47.814;11.134;2023-02-01T16:16:22;6.80;54.50
1812;DHT22;904;47.814;11.134;2023-02-01T16:18:50;6.80;54.20
1812;DHT22;904;47.814;11.134;2023-02-01T16:21:17;6.80;53.70
1812;DHT22;904;47.814;11.134;2023-02-01T16:23:48;6.80;53.90
1812;DHT22;904;47.814;11.134;2023-02-01T16:26:16;6.80;53.80
1812;DHT22;904;47.814;11.134;2023-02-01T16:28:43;6.80;53.30
1812;DHT22;904;47.814;11.134;2023-02-01T16:31:12;6.70;53.30
1812;DHT22;904;47.814;11.134;2023-02-01T16:33:46;6.70;53.50
1812;DHT22;904;47.814;11.134;2023-02-01T16:36:14;6.70;53.50
1812;DHT22;904;47.814;11.134;2023-02-01T16:38:41;6.60;53.50
1812;DHT22;904;47.814;11.134;2023-02-01T16:41:12;6.60;53.90
1812;DHT22;904;47.814;11.134;2023-02-01T16:43:40;6.60;53.30
1812;DHT22;904;47.814;11.134;2023-02-01T16:46:13;6.60;53.40
1812;DHT22;904;47.814;11.134;2023-02-01T16:48:42;6.50;53.40
1812;DHT22;904;47.814;11.134;2023-02-01T16:51:15;6.50;53.40
1812;DHT22;904;47.814;11.134;2023-02-01T16:53:43;6.60;53.30
1812;DHT22;904;47.814;11.134;2023-02-01T16:56:16;6.60;53.00
1812;DHT22;904;47.814;11.134;2023-02-01T16:58:43;6.50;52.90
1812;DHT22;904;47.814;11.134;2023-02-01T17:01:12;6.50;53.10
1812;DHT22;904;47.814;11.134;2023-02-01T17:03:39;6.50;53.20
1812;DHT22;904;47.814;11.134;2023-02-01T17:06:08;6.50;53.10
1812;DHT22;904;47.814;11.134;2023-02-01T17:08:40;6.40;53.50
1812;DHT22;904;47.814;11.134;2023-02-01T17:11:07;6.40;53.60